Time;durP1;ratioP1;P1;durP2;ratioP2;P2;SDS_P1;SDS_P2;PMS_P1;PMS_P2;Temp;Humidity;BMP_temperature;BMP_pressure;BME280_temperature;BME280_humidity;BME280_pressure;Samples;Min_cycle;Max_cycle;Signal;HPM_P1;HPM_P2
2023/09/03 00:01:51;;;;;;;8.45;3.90;;;23.00;95.00;;;;;;5015062;28;20101;-69
2023/09/03 00:04:17;;;;;;;9.93;3.40;;;23.00;95.00;;;;;;5015138;28;20127;-69
2023/09/03 00:06:42;;;;;;;7.63;3.30;;;23.00;94.90;;;;;;5015050;28;20014;-69
2023/09/03 00:09:08;;;;;;;8.88;3.97;;;22.90;94.90;;;;;;5014991;28;20084;-69
2023/09/03 00:11:34;;;;;;;7.40;3.40;;;22.90;94.80;;;;;;5014869;28;20398;-69
2023/09/03 00:13:59;;;;;;;8.27;3.30;;;22.90;94.80;;;;;;5014635;28;20180;-69
2023/09/03 00:16:26;;;;;;;6.90;3.47;;;22.90;94.80;;;;;;5014923;28;20061;-69
2023/09/03 00:18:52;;;;;;;11.38;3.53;;;22.90;94.80;;;;;;5014754;28;20026;-69
2023/09/03 00:21:17;;;;;;;6.30;3.47;;;22.80;94.60;;;;;;5014780;28;20044;-69
2023/09/03 00:23:43;;;;;;;6.72;3.53;;;22.90;94.50;;;;;;5014947;28;20029;-69
2023/09/03 00:26:21;;;;;;;9.77;3.70;;;22.80;94.40;;;;;;5014587;28;20451;-69
2023/09/03 00:28:47;;;;;;;4.60;3.22;;;22.80;94.40;;;;;;5014524;28;20026;-69
2023/09/03 00:31:13;;;;;;;6.00;3.25;;;22.80;94.40;;;;;;5014614;28;20050;-69
2023/09/03 00:33:39;;;;;;;8.50;3.13;;;22.80;94.40;;;;;;5014571;28;20061;-69
2023/09/03 00:36:06;;;;;;;7.70;3.10;;;22.70;94.40;;;;;;5014566;28;20026;-69
2023/09/03 00:38:32;;;;;;;8.80;3.30;;;22.70;94.40;;;;;;5014547;28;20041;-69
2023/09/03 00:40:58;;;;;;;8.43;3.00;;;22.70;94.30;;;;;;5014401;28;20030;-70
2023/09/03 00:43:24;;;;;;;6.53;3.00;;;22.70;94.30;;;;;;5014686;28;20022;-69
2023/09/03 00:45:51;;;;;;;4.68;3.10;;;22.70;94.20;;;;;;5014671;28;20398;-69
2023/09/03 00:48:20;;;;;;;6.68;2.97;;;22.70;94.10;;;;;;5014357;28;20025;-69
2023/09/03 00:50:47;;;;;;;9.60;3.15;;;22.70;94.00;;;;;;5014231;28;20065;-68
2023/09/03 00:53:15;;;;;;;4.55;2.97;;;22.70;94.00;;;;;;5014120;28;20049;-69
2023/09/03 00:55:41;;;;;;;8.65;4.22;;;22.70;93.90;;;;;;5014104;28;20033;-69
2023/09/03 00:58:08;;;;;;;6.80;3.20;;;22.60;93.90;;;;;;5012695;28;20377;-70
2023/09/03 01:00:35;;;;;;;7.40;3.15;;;22.60;93.90;;;;;;5011522;28;20026;-68
2023/09/03 01:03:02;;;;;;;6.72;3.95;;;22.60;93.90;;;;;;5011318;28;20466;-71
2023/09/03 01:05:28;;;;;;;6.75;3.40;;;22.50;93.90;;;;;;5013089;28;20022;-70
2023/09/03 01:07:57;;;;;;;7.45;3.55;;;22.50;93.90;;;;;;5014039;28;20029;-69
2023/09/03 01:10:28;;;;;;;8.02;3.20;;;22.50;94.00;;;;;;5013832;28;20042;-69
2023/09/03 01:13:20;;;;;;;6.72;3.20;;;22.50;94.10;;;;;;5012439;28;20061;-69
2023/09/03 01:15:49;;;;;;;7.03;3.25;;;22.50;94.10;;;;;;5014000;28;20038;-69
2023/09/03 01:18:24;;;;;;;6.72;3.13;;;22.50;94.10;;;;;;5013727;28;20029;-69
2023/09/03 01:20:58;;;;;;;6.72;3.30;;;22.50;94.00;;;;;;5013617;28;20026;-69
2023/09/03 01:24:13;;;;;;;6.45;3.17;;;22.50;94.00;;;;;;5013614;28;20022;-69
2023/09/03 01:27:01;;;;;;;6.90;3.10;;;22.50;94.00;;;;;;4972138;28;20061;-68
2023/09/03 01:29:28;;;;;;;7.68;2.80;;;22.50;94.00;;;;;;4972473;28;20050;-69
2023/09/03 01:31:55;;;;;;;8.27;3.35;;;22.40;94.00;;;;;;5001520;28;20121;-69
2023/09/03 01:34:22;;;;;;;7.40;3.65;;;22.40;94.00;;;;;;5013569;28;20026;-69
2023/09/03 01:36:48;;;;;;;8.30;3.60;;;22.40;94.00;;;;;;5013304;28;20040;-69
2023/09/03 01:39:16;;;;;;;4.38;2.88;;;22.40;93.90;;;;;;5013066;28;20018;-68
2023/09/03 01:41:42;;;;;;;8.95;3.30;;;22.40;93.90;;;;;;5012811;28;20612;-70
2023/09/03 01:44:09;;;;;;;5.65;3.53;;;22.40;93.90;;;;;;5013454;28;20101;-69
2023/09/03 01:46:48;;;;;;;6.68;3.78;;;22.40;93.90;;;;;;5013375;28;20116;-69
2023/09/03 01:49:41;;;;;;;4.30;3.25;;;22.40;94.00;;;;;;5013534;28;20022;-71
2023/09/03 01:52:23;;;;;;;8.00;3.55;;;22.30;93.90;;;;;;5013287;28;20096;-70
2023/09/03 01:54:51;;;;;;;5.82;3.42;;;22.30;94.00;;;;;;5013412;28;20363;-69
2023/09/03 01:57:33;;;;;;;8.45;4.00;;;22.30;94.00;;;;;;5013177;28;20034;-69
2023/09/03 02:00:07;;;;;;;7.30;3.50;;;22.20;94.00;;;;;;5013833;28;20361;-70
2023/09/03 02:02:33;;;;;;;8.82;3.85;;;22.20;94.00;;;;;;5013095;28;20034;-69
2023/09/03 02:04:59;;;;;;;10.50;3.78;;;22.10;94.00;;;;;;5013386;28;20071;-69
2023/09/03 02:07:25;;;;;;;8.43;3.60;;;22.00;94.00;;;;;;5012939;28;20018;-69
2023/09/03 02:09:51;;;;;;;6.68;3.50;;;22.00;94.00;;;;;;5013124;28;20053;-69
2023/09/03 02:12:23;;;;;;;7.97;3.83;;;22.00;94.10;;;;;;5013283;28;20042;-69
2023/09/03 02:14:52;;;;;;;7.57;3.58;;;21.90;94.20;;;;;;5013035;28;20536;-69
2023/09/03 02:17:21;;;;;;;9.57;3.60;;;21.90;94.20;;;;;;5013175;28;20025;-69
2023/09/03 02:19:51;;;;;;;13.82;4.13;;;21.90;94.20;;;;;;5013238;28;20112;-69
2023/09/03 02:22:17;;;;;;;7.15;3.65;;;21.90;94.30;;;;;;5013099;28;20367;-69
2023/09/03 02:24:43;;;;;;;6.82;3.47;;;21.80;94.30;;;;;;5012889;28;20030;-70
2023/09/03 02:27:10;;;;;;;5.60;3.33;;;21.90;94.30;;;;;;5011694;28;20375;-69
2023/09/03 02:29:36;;;;;;;8.73;3.95;;;21.80;94.40;;;;;;5013028;28;20061;-69
2023/09/03 02:32:02;;;;;;;6.90;3.67;;;21.80;94.40;;;;;;5013034;28;20488;-68
2023/09/03 02:34:27;;;;;;;7.63;3.95;;;21.80;94.50;;;;;;5012840;28;20113;-69
2023/09/03 02:36:53;;;;;;;12.85;4.35;;;21.80;94.50;;;;;;5012888;28;20045;-69
2023/09/03 02:39:19;;;;;;;7.93;3.78;;;21.80;94.50;;;;;;5012866;28;20466;-69
2023/09/03 02:41:44;;;;;;;8.30;3.45;;;21.80;94.50;;;;;;5012794;28;20030;-69
2023/09/03 02:44:10;;;;;;;7.38;3.33;;;21.80;94.50;;;;;;5012827;28;20030;-69
2023/09/03 02:46:36;;;;;;;6.82;3.70;;;21.80;94.50;;;;;;5012604;28;20466;-69
2023/09/03 02:49:02;;;;;;;5.28;4.10;;;21.80;94.60;;;;;;5011656;28;20392;-70
2023/09/03 02:51:28;;;;;;;7.85;3.60;;;21.80;94.50;;;;;;5012761;28;20025;-69
2023/09/03 02:53:55;;;;;;;7.43;4.15;;;21.80;94.50;;;;;;5015789;28;20060;-69
2023/09/03 02:56:22;;;;;;;7.82;3.80;;;21.70;94.50;;;;;;5016252;28;20087;-69
2023/09/03 02:58:48;;;;;;;5.63;3.78;;;21.70;94.60;;;;;;5016661;28;20464;-69
2023/09/03 03:01:17;;;;;;;9.40;3.47;;;21.70;94.50;;;;;;5016435;28;20382;-69
2023/09/03 03:03:42;;;;;;;6.40;3.58;;;21.70;94.60;;;;;;5016479;28;20030;-69
2023/09/03 03:06:09;;;;;;;7.72;3.75;;;21.70;94.50;;;;;;5015204;28;20083;-69
2023/09/03 03:08:35;;;;;;;7.38;3.70;;;21.70;94.50;;;;;;5016372;28;20065;-68
2023/09/03 03:11:07;;;;;;;9.63;3.80;;;21.70;94.50;;;;;;5015796;28;20477;-69
2023/09/03 03:13:34;;;;;;;6.78;3.75;;;21.70;94.40;;;;;;5016078;28;20493;-68
2023/09/03 03:16:14;;;;;;;7.28;3.60;;;21.70;94.50;;;;;;5016292;28;20030;-68
2023/09/03 03:18:42;;;;;;;7.70;3.92;;;21.60;94.40;;;;;;5016430;28;20018;-69
2023/09/03 03:21:18;;;;;;;4.72;3.60;;;21.50;94.40;;;;;;5015983;28;20489;-69
2023/09/03 03:23:47;;;;;;;7.47;3.70;;;21.50;94.40;;;;;;5015989;28;20429;-68
2023/09/03 03:26:12;;;;;;;7.60;3.55;;;21.50;94.50;;;;;;5015536;28;20433;-69
2023/09/03 03:28:38;;;;;;;5.65;3.75;;;21.50;94.50;;;;;;5015977;28;20022;-69
2023/09/03 03:31:15;;;;;;;4.15;3.15;;;21.50;94.60;;;;;;5015644;28;20459;-69
2023/09/03 03:33:42;;;;;;;10.60;3.83;;;21.50;94.50;;;;;;5015632;28;20375;-69
2023/09/03 03:36:19;;;;;;;5.97;3.95;;;21.50;94.60;;;;;;5015495;28;20093;-68
2023/09/03 03:38:45;;;;;;;6.28;3.80;;;21.50;94.50;;;;;;5014374;28;20450;-68
2023/09/03 03:41:11;;;;;;;6.75;3.45;;;21.50;94.50;;;;;;5015735;28;20101;-68
2023/09/03 03:43:38;;;;;;;10.13;3.90;;;21.50;94.60;;;;;;5015582;28;20092;-69
2023/09/03 03:46:05;;;;;;;8.65;3.78;;;21.40;94.60;;;;;;5014115;28;20076;-68
2023/09/03 03:48:31;;;;;;;9.25;3.60;;;21.50;94.50;;;;;;5015540;28;20551;-69
2023/09/03 03:50:57;;;;;;;7.93;3.90;;;21.40;94.50;;;;;;5015399;28;20366;-69
2023/09/03 03:53:23;;;;;;;10.38;3.80;;;21.40;94.60;;;;;;5015368;28;20032;-68
2023/09/03 03:56:00;;;;;;;13.25;3.55;;;21.40;94.50;;;;;;5015056;28;20409;-68
2023/09/03 03:58:27;;;;;;;6.22;3.38;;;21.40;94.60;;;;;;5015669;28;20076;-68
2023/09/03 04:00:52;;;;;;;7.72;3.33;;;21.40;94.60;;;;;;5015257;28;20030;-67
2023/09/03 04:03:18;;;;;;;8.43;3.78;;;21.40;94.60;;;;;;5014800;28;20026;-69
2023/09/03 04:05:44;;;;;;;7.45;3.72;;;21.30;94.60;;;;;;5015350;28;20501;-68
2023/09/03 04:08:09;;;;;;;6.68;3.22;;;21.30;94.70;;;;;;5015215;28;20022;-68
2023/09/03 04:10:35;;;;;;;7.90;3.90;;;21.30;94.60;;;;;;5014907;28;20112;-68
2023/09/03 04:13:01;;;;;;;6.53;3.47;;;21.30;94.60;;;;;;5014874;28;20021;-68
2023/09/03 04:15:26;;;;;;;7.13;3.35;;;21.30;94.90;;;;;;5014822;28;20435;-68
2023/09/03 04:17:52;;;;;;;8.20;3.67;;;21.30;94.60;;;;;;5014975;28;20049;-68
2023/09/03 04:20:18;;;;;;;7.75;3.47;;;21.30;94.60;;;;;;5014902;28;20036;-69
2023/09/03 04:22:43;;;;;;;10.55;3.17;;;21.40;94.60;;;;;;5015090;28;20088;-69
2023/09/03 04:25:09;;;;;;;9.15;3.55;;;21.40;94.50;;;;;;5014831;28;20038;-69
2023/09/03 04:27:35;;;;;;;8.93;3.30;;;21.40;94.50;;;;;;5014795;28;20022;-69
2023/09/03 04:30:02;;;;;;;4.03;3.13;;;21.30;94.50;;;;;;5014557;28;20065;-69
2023/09/03 04:32:27;;;;;;;6.03;3.67;;;21.30;94.60;;;;;;5014998;28;20445;-69
2023/09/03 04:34:53;;;;;;;6.15;3.25;;;21.30;94.60;;;;;;5014644;28;20105;-69
2023/09/03 04:37:19;;;;;;;10.10;3.47;;;21.30;94.70;;;;;;5014410;28;20116;-69
2023/09/03 04:39:44;;;;;;;4.95;3.40;;;21.30;94.70;;;;;;5014691;28;20030;-68
2023/09/03 04:42:10;;;;;;;5.90;3.50;;;21.30;94.70;;;;;;5014688;28;20021;-68
2023/09/03 04:44:38;;;;;;;6.35;3.60;;;21.30;94.70;;;;;;5014390;28;20018;-68
2023/09/03 04:47:05;;;;;;;5.15;3.08;;;21.30;94.70;;;;;;5014011;28;20022;-69
2023/09/03 04:49:32;;;;;;;4.97;3.10;;;21.30;94.70;;;;;;5012459;28;20294;-69
2023/09/03 04:51:58;;;;;;;8.30;3.45;;;21.30;94.70;;;;;;5014358;28;20029;-69
2023/09/03 04:54:23;;;;;;;11.00;3.42;;;21.30;94.70;;;;;;5014160;28;20456;-68
2023/09/03 04:56:49;;;;;;;5.57;3.28;;;21.30;94.60;;;;;;5014555;28;20101;-68
2023/09/03 04:59:15;;;;;;;8.85;3.45;;;21.30;94.60;;;;;;5014164;28;20029;-68
2023/09/03 05:01:41;;;;;;;7.57;3.30;;;21.30;94.50;;;;;;5014195;28;20022;-68
2023/09/03 05:04:07;;;;;;;5.10;3.20;;;21.20;94.50;;;;;;5014299;28;20033;-70
2023/09/03 05:06:32;;;;;;;6.85;2.88;;;21.30;94.60;;;;;;5014158;28;20021;-69
2023/09/03 05:08:58;;;;;;;7.90;4.00;;;21.30;94.60;;;;;;5014008;28;20036;-69
2023/09/03 05:11:24;;;;;;;7.55;3.90;;;21.20;94.60;;;;;;5013895;28;20054;-68
2023/09/03 05:13:49;;;;;;;5.32;3.10;;;21.30;94.60;;;;;;5013931;28;20030;-69
2023/09/03 05:16:15;;;;;;;10.90;2.83;;;21.20;94.60;;;;;;5013320;28;20041;-69
2023/09/03 05:18:41;;;;;;;4.20;3.00;;;21.20;94.60;;;;;;5014106;28;20105;-69
2023/09/03 05:21:08;;;;;;;9.02;3.03;;;21.20;94.60;;;;;;5013770;28;20482;-68
2023/09/03 05:23:35;;;;;;;8.77;2.80;;;21.30;94.60;;;;;;5013919;28;20072;-69
2023/09/03 05:26:00;;;;;;;7.93;2.70;;;21.30;94.60;;;;;;5013925;28;20076;-69
2023/09/03 05:28:26;;;;;;;4.25;2.50;;;21.30;94.40;;;;;;5013618;28;20022;-69
2023/09/03 05:30:52;;;;;;;5.75;2.40;;;21.30;94.30;;;;;;5013763;28;20032;-69
2023/09/03 05:33:18;;;;;;;4.97;2.70;;;21.30;94.20;;;;;;5013516;28;20028;-69
2023/09/03 05:35:43;;;;;;;7.65;2.90;;;21.30;94.10;;;;;;5013580;28;20065;-69
2023/09/03 05:38:09;;;;;;;3.80;2.30;;;21.30;94.10;;;;;;5013471;28;20105;-69
2023/09/03 05:40:35;;;;;;;11.60;2.90;;;21.30;94.10;;;;;;5013557;28;20481;-69
2023/09/03 05:43:00;;;;;;;4.22;2.83;;;21.30;94.10;;;;;;5013517;28;20018;-70
2023/09/03 05:45:26;;;;;;;4.80;2.85;;;21.30;94.10;;;;;;5013287;28;20117;-68
2023/09/03 05:47:51;;;;;;;4.05;2.65;;;21.30;94.20;;;;;;5013519;28;20022;-69
2023/09/03 05:50:17;;;;;;;4.68;2.80;;;21.30;94.30;;;;;;5013116;28;20562;-69
2023/09/03 05:52:43;;;;;;;4.57;2.65;;;21.30;94.30;;;;;;5013322;28;20032;-69
2023/09/03 05:55:10;;;;;;;4.55;2.60;;;21.40;94.30;;;;;;5013304;28;20036;-69
2023/09/03 05:57:36;;;;;;;8.77;3.17;;;21.40;94.10;;;;;;5013336;28;20033;-68
2023/09/03 06:00:02;;;;;;;5.38;3.05;;;21.40;94.10;;;;;;5013398;28;20360;-69
2023/09/03 06:02:28;;;;;;;3.40;2.47;;;21.40;94.10;;;;;;5013538;28;20061;-69
2023/09/03 06:04:53;;;;;;;3.85;2.20;;;21.50;94.20;;;;;;5013438;28;20057;-69
2023/09/03 06:07:19;;;;;;;5.13;2.83;;;21.50;94.20;;;;;;5013279;28;20030;-68
2023/09/03 06:09:45;;;;;;;5.72;2.70;;;21.60;94.20;;;;;;5013159;28;20050;-69
2023/09/03 06:12:11;;;;;;;4.57;2.55;;;21.60;94.00;;;;;;5013319;28;20018;-69
2023/09/03 06:14:36;;;;;;;4.45;2.78;;;21.60;94.00;;;;;;5013189;28;20034;-70
2023/09/03 06:17:04;;;;;;;9.88;3.30;;;21.60;94.10;;;;;;5013375;28;20105;-69
2023/09/03 06:19:30;;;;;;;6.20;2.72;;;21.70;94.30;;;;;;5012898;28;20054;-69
2023/09/03 06:21:56;;;;;;;5.05;2.78;;;21.70;94.40;;;;;;5013294;28;20137;-68
2023/09/03 06:24:22;;;;;;;10.52;2.88;;;21.80;94.50;;;;;;5013207;28;20083;-69
2023/09/03 06:26:48;;;;;;;3.53;2.60;;;21.80;94.50;;;;;;5014474;28;20026;-69
2023/09/03 06:29:13;;;;;;;5.10;2.80;;;21.90;94.50;;;;;;5017108;28;20057;-69
2023/09/03 06:31:39;;;;;;;7.88;2.92;;;21.90;94.40;;;;;;5017076;28;20029;-68
2023/09/03 06:34:05;;;;;;;8.57;2.92;;;21.90;94.40;;;;;;5016986;28;20377;-68
2023/09/03 06:36:30;;;;;;;12.63;3.28;;;21.90;94.30;;;;;;5017187;28;20402;-69
2023/09/03 06:38:56;;;;;;;5.03;3.05;;;21.90;94.20;;;;;;5016996;28;20022;-69
2023/09/03 06:41:22;;;;;;;9.35;2.67;;;22.00;94.20;;;;;;5016796;28;20105;-68
2023/09/03 06:43:48;;;;;;;7.45;2.47;;;22.10;94.10;;;;;;5017027;28;20041;-69
2023/09/03 06:46:13;;;;;;;5.28;2.70;;;22.10;94.00;;;;;;5016763;28;20026;-68
2023/09/03 06:48:39;;;;;;;7.25;2.55;;;22.10;93.90;;;;;;5015429;28;20029;-68
2023/09/03 06:51:05;;;;;;;12.30;3.10;;;22.10;93.90;;;;;;5016674;28;20029;-69
2023/09/03 06:53:30;;;;;;;4.63;2.50;;;22.20;93.90;;;;;;5015558;28;20382;-69
2023/09/03 06:55:57;;;;;;;3.65;2.30;;;22.20;93.80;;;;;;5015251;28;20553;-69
2023/09/03 06:58:23;;;;;;;9.82;2.50;;;22.20;93.50;;;;;;5016605;28;20547;-69
2023/09/03 07:00:48;;;;;;;2.97;2.40;;;22.20;93.50;;;;;;5016271;28;20045;-69
2023/09/03 07:03:14;;;;;;;4.70;2.20;;;22.20;93.40;;;;;;5016474;28;20022;-69
2023/09/03 07:05:41;;;;;;;4.85;2.63;;;22.30;93.50;;;;;;5016479;28;20041;-68
2023/09/03 07:08:07;;;;;;;6.97;2.58;;;22.30;93.50;;;;;;5016377;28;20037;-69
2023/09/03 07:10:33;;;;;;;5.03;2.28;;;22.30;93.50;;;;;;5016172;28;20050;-69
2023/09/03 07:12:59;;;;;;;4.10;2.20;;;22.40;93.40;;;;;;5016352;28;20028;-69
2023/09/03 07:15:25;;;;;;;8.38;2.30;;;22.40;93.40;;;;;;5016221;28;20037;-69
2023/09/03 07:17:51;;;;;;;5.75;2.25;;;22.50;93.40;;;;;;5016187;28;20076;-68
2023/09/03 07:20:17;;;;;;;6.10;2.40;;;22.50;93.40;;;;;;5015924;28;20026;-69
2023/09/03 07:22:43;;;;;;;6.22;2.50;;;22.50;93.30;;;;;;5016200;28;20029;-69
2023/09/03 07:25:11;;;;;;;3.47;2.13;;;22.60;93.40;;;;;;5016118;28;20177;-69
2023/09/03 07:27:40;;;;;;;6.25;2.05;;;22.60;93.40;;;;;;5015957;28;20030;-69
2023/09/03 07:30:08;;;;;;;6.85;2.45;;;22.70;93.40;;;;;;5014835;28;20398;-68
2023/09/03 07:32:36;;;;;;;4.88;2.30;;;22.70;93.30;;;;;;5016134;28;20033;-68
2023/09/03 07:35:06;;;;;;;5.68;2.20;;;22.70;93.20;;;;;;5015785;28;20041;-70
2023/09/03 07:37:32;;;;;;;11.07;2.67;;;22.70;92.90;;;;;;5015436;28;20046;-68
2023/09/03 07:39:58;;;;;;;4.63;2.20;;;22.70;92.80;;;;;;5015025;28;20030;-68
2023/09/03 07:42:23;;;;;;;9.45;2.40;;;22.70;92.80;;;;;;5015602;28;20492;-68
2023/09/03 07:44:49;;;;;;;5.43;2.33;;;22.80;92.80;;;;;;5015620;28;20029;-70
2023/09/03 07:47:15;;;;;;;5.97;2.30;;;22.80;92.90;;;;;;5015588;28;20030;-68
2023/09/03 07:49:42;;;;;;;5.25;2.60;;;22.80;92.80;;;;;;5015787;28;20072;-69
2023/09/03 07:52:08;;;;;;;5.97;2.40;;;22.80;92.70;;;;;;5015174;28;20022;-68
2023/09/03 07:54:34;;;;;;;6.00;2.30;;;22.90;92.70;;;;;;5015250;28;20033;-69
2023/09/03 07:57:00;;;;;;;3.20;2.15;;;22.90;92.80;;;;;;5015320;28;20084;-69
2023/09/03 07:59:26;;;;;;;3.85;2.30;;;23.00;92.80;;;;;;5015296;28;20026;-69
2023/09/03 08:01:51;;;;;;;6.25;1.83;;;23.00;92.80;;;;;;5015348;28;20026;-69
2023/09/03 08:04:18;;;;;;;3.95;2.00;;;23.10;92.90;;;;;;5015255;28;20060;-69
2023/09/03 08:06:43;;;;;;;4.55;2.40;;;23.10;92.90;;;;;;5015120;28;20053;-68
2023/09/03 08:09:09;;;;;;;3.38;2.30;;;23.10;92.70;;;;;;5015223;28;20505;-68
2023/09/03 08:11:36;;;;;;;4.00;1.95;;;23.20;92.60;;;;;;5015082;28;20410;-69
2023/09/03 08:14:02;;;;;;;4.53;1.98;;;23.20;92.40;;;;;;5014976;28;20026;-69
2023/09/03 08:16:28;;;;;;;6.43;2.53;;;23.20;92.20;;;;;;5015229;28;20028;-69
2023/09/03 08:18:54;;;;;;;6.93;2.30;;;23.30;92.30;;;;;;5015076;28;20144;-69
2023/09/03 08:21:19;;;;;;;6.57;2.45;;;23.30;92.50;;;;;;5015366;28;20030;-68
2023/09/03 08:23:45;;;;;;;5.80;2.28;;;23.30;92.20;;;;;;5014842;28;20026;-69
2023/09/03 08:26:11;;;;;;;5.57;2.30;;;23.30;92.20;;;;;;5013584;28;20033;-69
2023/09/03 08:28:36;;;;;;;6.20;2.42;;;23.40;92.30;;;;;;5014932;28;20498;-68
2023/09/03 08:31:03;;;;;;;8.15;2.40;;;23.40;92.20;;;;;;5014795;28;20360;-69
2023/09/03 08:33:28;;;;;;;3.55;2.05;;;23.40;92.30;;;;;;5014702;28;20018;-69
2023/09/03 08:35:54;;;;;;;5.35;2.17;;;23.50;92.30;;;;;;5014557;28;20044;-69
2023/09/03 08:38:20;;;;;;;3.60;2.13;;;23.50;92.30;;;;;;5014436;28;20096;-68
2023/09/03 08:40:45;;;;;;;5.78;2.35;;;23.60;92.20;;;;;;5014585;28;20026;-69
2023/09/03 08:43:14;;;;;;;5.65;1.98;;;23.60;92.20;;;;;;5014289;28;20022;-69
2023/09/03 08:45:47;;;;;;;9.50;3.20;;;23.60;92.10;;;;;;5014510;28;20034;-69
2023/09/03 08:48:14;;;;;;;4.50;2.30;;;23.70;92.30;;;;;;5014451;28;20076;-70
2023/09/03 08:50:40;;;;;;;3.55;2.42;;;23.70;92.50;;;;;;5014427;28;20018;-69
2023/09/03 08:53:06;;;;;;;5.90;2.28;;;23.80;92.40;;;;;;5014323;28;20021;-68
2023/09/03 08:55:33;;;;;;;7.13;3.28;;;23.80;92.30;;;;;;5014097;28;20038;-69
2023/09/03 08:57:59;;;;;;;5.53;2.40;;;23.80;92.50;;;;;;5014349;28;20022;-69
2023/09/03 09:00:25;;;;;;;12.13;3.30;;;23.90;92.60;;;;;;5014350;28;20038;-69
2023/09/03 09:02:52;;;;;;;3.08;2.33;;;23.90;92.50;;;;;;5014190;28;20029;-69
2023/09/03 09:05:18;;;;;;;4.60;2.67;;;23.90;92.50;;;;;;5014091;28;20053;-69
2023/09/03 09:07:47;;;;;;;3.92;2.13;;;23.90;92.40;;;;;;5014251;28;20060;-69
2023/09/03 09:10:16;;;;;;;6.30;2.60;;;24.00;92.40;;;;;;5014065;28;20077;-69
2023/09/03 09:13:05;;;;;;;11.40;3.10;;;24.00;92.30;;;;;;5014054;28;20037;-69
2023/09/03 09:15:33;;;;;;;6.95;3.30;;;24.00;92.20;;;;;;5012547;28;20398;-69
2023/09/03 09:17:59;;;;;;;3.90;2.17;;;24.10;92.10;;;;;;5013997;28;20026;-69
2023/09/03 09:20:24;;;;;;;5.05;2.20;;;24.20;92.10;;;;;;5013850;28;20072;-69
2023/09/03 09:22:50;;;;;;;5.32;2.50;;;24.20;92.00;;;;;;5013842;28;20386;-69
2023/09/03 09:25:23;;;;;;;5.90;2.80;;;24.30;92.00;;;;;;5013737;28;20033;-69
2023/09/03 09:27:51;;;;;;;10.45;4.05;;;24.30;91.90;;;;;;5013800;28;20022;-68
2023/09/03 09:30:19;;;;;;;6.82;2.65;;;24.40;91.90;;;;;;5013689;28;20032;-70
2023/09/03 09:32:45;;;;;;;5.43;2.47;;;24.40;91.90;;;;;;5013992;28;20521;-69
2023/09/03 09:35:22;;;;;;;4.75;2.83;;;24.50;91.90;;;;;;5013596;28;20038;-69
2023/09/03 09:37:48;;;;;;;5.43;2.28;;;24.50;91.90;;;;;;5013693;28;20097;-69
2023/09/03 09:40:28;;;;;;;6.97;3.05;;;24.60;91.90;;;;;;5013328;28;20053;-69
2023/09/03 09:42:57;;;;;;;7.05;3.20;;;24.60;91.80;;;;;;5013631;28;20030;-69
2023/09/03 09:45:23;;;;;;;5.90;3.80;;;24.70;92.00;;;;;;5013604;28;20022;-69
2023/09/03 09:48:15;;;;;;;4.22;2.47;;;24.70;92.00;;;;;;5013634;28;20030;-69
2023/09/03 09:50:42;;;;;;;;;;;24.70;92.00;;;;;;5011970;28;20034;-69
2023/09/03 09:53:24;;;;;;;5.90;2.95;;;24.80;91.80;;;;;;5013478;28;19913;-69
2023/09/03 09:56:00;;;;;;;;;;;24.90;92.00;;;;;;5013799;28;20061;-69
2023/09/03 09:58:35;;;;;;;6.15;2.78;;;24.90;91.90;;;;;;5013545;28;20280;-68
2023/09/03 10:01:01;;;;;;;4.95;2.60;;;25.00;91.70;;;;;;5012892;28;20482;-70
2023/09/03 10:03:40;;;;;;;4.45;2.58;;;25.00;91.90;;;;;;5013121;28;20060;-70
2023/09/03 10:06:07;;;;;;;6.60;2.95;;;25.10;91.60;;;;;;5013381;28;20105;-69
2023/09/03 10:08:34;;;;;;;7.82;2.78;;;25.10;91.30;;;;;;5013198;28;20022;-69
2023/09/03 10:10:59;;;;;;;6.78;2.80;;;25.20;91.30;;;;;;5013225;28;20137;-69
2023/09/03 10:13:25;;;;;;;10.18;3.00;;;25.20;91.10;;;;;;5013462;28;20476;-70
2023/09/03 10:15:52;;;;;;;8.73;3.13;;;25.30;91.10;;;;;;5011724;28;20117;-69
2023/09/03 10:18:19;;;;;;;13.18;3.60;;;25.30;91.10;;;;;;5013037;28;20473;-69
2023/09/03 10:20:46;;;;;;;6.53;3.03;;;25.30;91.10;;;;;;5013403;28;20390;-69
2023/09/03 10:23:16;;;;;;;8.13;3.35;;;25.40;90.80;;;;;;5013170;28;20521;-70
2023/09/03 10:25:42;;;;;;;8.68;3.00;;;25.40;90.20;;;;;;5013107;28;20026;-69
2023/09/03 10:28:09;;;;;;;7.15;3.05;;;25.50;90.20;;;;;;5013000;28;20037;-70
2023/09/03 10:30:40;;;;;;;4.90;3.05;;;25.50;90.30;;;;;;5013025;28;20069;-69
2023/09/03 10:33:08;;;;;;;5.88;2.65;;;25.60;90.40;;;;;;5013057;28;20030;-69
2023/09/03 10:35:34;;;;;;;8.88;4.05;;;25.60;90.20;;;;;;5012972;28;20036;-69
2023/09/03 10:38:00;;;;;;;6.18;3.30;;;25.70;90.50;;;;;;5013181;28;20358;-68
2023/09/03 10:40:30;;;;;;;4.70;2.90;;;25.80;90.60;;;;;;5013036;28;20474;-68
2023/09/03 10:43:31;;;;;;;6.88;3.20;;;25.90;90.60;;;;;;5013022;28;20076;-68
2023/09/03 10:46:04;;;;;;;8.40;2.80;;;25.90;90.80;;;;;;4971992;28;20034;-69
2023/09/03 10:48:30;;;;;;;7.13;2.78;;;26.00;90.40;;;;;;5006750;28;20442;-69
2023/09/03 10:50:55;;;;;;;6.53;3.92;;;26.10;90.40;;;;;;5013019;28;20049;-70
2023/09/03 10:53:41;;;;;;;7.57;2.60;;;26.10;90.10;;;;;;5012777;28;20080;-69
2023/09/03 10:56:11;;;;;;;8.25;2.92;;;26.20;90.00;;;;;;5012779;28;20088;-68
2023/09/03 10:58:56;;;;;;;5.63;2.88;;;26.20;90.10;;;;;;5010898;28;20076;-70
2023/09/03 11:01:33;;;;;;;6.00;2.80;;;26.20;90.00;;;;;;5008709;28;20076;-70
2023/09/03 11:04:03;;;;;;;9.40;2.80;;;26.30;89.90;;;;;;5011892;28;20029;-69
2023/09/03 11:06:33;;;;;;;8.52;2.80;;;26.40;89.20;;;;;;5012792;28;20053;-69
2023/09/03 11:08:59;;;;;;;8.93;3.05;;;26.40;89.60;;;;;;5012695;28;20038;-69
2023/09/03 11:11:28;;;;;;;9.95;3.00;;;26.50;89.00;;;;;;5012657;28;20045;-69
2023/09/03 11:13:55;;;;;;;9.73;2.83;;;26.60;88.70;;;;;;5014143;28;20097;-69
2023/09/03 11:16:27;;;;;;;9.05;2.67;;;26.60;88.00;;;;;;5016211;28;20076;-69
2023/09/03 11:18:53;;;;;;;5.30;2.80;;;26.70;88.20;;;;;;5016037;28;20036;-69
2023/09/03 11:21:19;;;;;;;6.80;2.78;;;26.80;86.60;;;;;;5016099;28;20026;-69
2023/09/03 11:24:18;;;;;;;6.50;3.10;;;26.90;86.60;;;;;;5014141;28;20469;-69
2023/09/03 11:26:45;;;;;;;4.55;2.70;;;26.90;86.70;;;;;;5013206;28;20036;-70
2023/09/03 11:29:21;;;;;;;5.22;2.60;;;27.00;87.80;;;;;;5013849;28;20428;-69
2023/09/03 11:31:48;;;;;;;5.78;2.63;;;27.00;85.30;;;;;;5015548;28;20034;-69
2023/09/03 11:34:23;;;;;;;6.72;2.88;;;27.10;85.80;;;;;;5015915;28;20038;-70
2023/09/03 11:36:49;;;;;;;6.68;2.90;;;27.10;86.10;;;;;;5016011;28;20113;-69
2023/09/03 11:39:16;;;;;;;8.75;3.00;;;27.10;86.10;;;;;;5015480;28;20398;-69
2023/09/03 11:41:46;;;;;;;6.25;2.63;;;27.20;86.20;;;;;;5015585;28;20029;-70
2023/09/03 11:44:22;;;;;;;5.97;3.00;;;27.20;86.40;;;;;;5015516;28;20034;-69
2023/09/03 11:47:02;;;;;;;5.38;2.80;;;27.30;87.10;;;;;;5015295;28;20021;-69
2023/09/03 11:49:28;;;;;;;6.93;2.65;;;27.30;86.10;;;;;;5015498;28;20101;-70
2023/09/03 11:52:10;;;;;;;10.05;2.67;;;27.40;85.30;;;;;;5015774;28;20104;-69
2023/09/03 11:54:36;;;;;;;4.57;2.95;;;27.40;85.90;;;;;;5015255;28;20041;-69
2023/09/03 11:57:04;;;;;;;5.10;2.53;;;27.50;86.30;;;;;;5015534;28;20027;-70
2023/09/03 11:59:30;;;;;;;6.47;2.80;;;27.50;86.90;;;;;;5015236;28;20022;-68
2023/09/03 12:01:56;;;;;;;6.05;2.90;;;27.60;85.90;;;;;;5015231;28;20516;-69
2023/09/03 12:04:22;;;;;;;8.20;3.15;;;27.60;85.70;;;;;;5013953;28;20093;-69
2023/09/03 12:06:47;;;;;;;5.28;2.83;;;27.60;85.80;;;;;;5015363;28;20604;-68
2023/09/03 12:09:13;;;;;;;6.70;2.80;;;27.60;83.60;;;;;;5015145;28;20029;-69
2023/09/03 12:11:39;;;;;;;5.82;2.60;;;27.60;84.80;;;;;;5015028;28;20050;-69
2023/09/03 12:14:09;;;;;;;4.13;2.50;;;27.60;84.20;;;;;;5015009;28;20474;-70
2023/09/03 12:16:48;;;;;;;5.97;2.70;;;27.70;84.90;;;;;;5015085;28;20022;-69
2023/09/03 12:19:14;;;;;;;8.63;2.90;;;27.70;85.30;;;;;;5015508;28;20045;-69
2023/09/03 12:21:39;;;;;;;5.57;2.97;;;27.70;85.80;;;;;;5015312;28;20022;-69
2023/09/03 12:24:07;;;;;;;4.20;2.60;;;27.70;85.40;;;;;;5014583;28;20470;-70
2023/09/03 12:26:36;;;;;;;3.65;2.30;;;27.70;84.50;;;;;;5015051;28;20021;-69
2023/09/03 12:29:03;;;;;;;3.63;2.40;;;27.70;83.20;;;;;;5014675;28;20087;-70
2023/09/03 12:31:44;;;;;;;6.97;2.90;;;27.70;83.30;;;;;;5014810;28;20497;-69
2023/09/03 12:34:10;;;;;;;6.28;2.38;;;27.70;83.70;;;;;;5014585;28;20033;-68
2023/09/03 12:37:03;;;;;;;3.78;2.38;;;27.70;84.20;;;;;;5014693;28;20029;-69
2023/09/03 12:39:31;;;;;;;6.65;2.53;;;27.70;83.90;;;;;;5012674;28;20041;-69
2023/09/03 12:41:58;;;;;;;3.72;2.42;;;27.70;83.90;;;;;;5014591;28;20034;-69
2023/09/03 12:44:26;;;;;;;4.63;2.70;;;27.70;83.50;;;;;;5014572;28;20116;-68
2023/09/03 12:46:52;;;;;;;9.10;2.75;;;27.70;83.50;;;;;;5014631;28;20113;-69
2023/09/03 12:49:18;;;;;;;4.63;2.30;;;27.70;83.90;;;;;;5014474;28;20030;-69
2023/09/03 12:51:44;;;;;;;3.45;2.22;;;27.70;84.20;;;;;;5014296;28;20394;-69